createdAt,value
2023-04-25T00:01:06.113Z,2.75
2023-04-25T00:03:34.023Z,3.03
2023-04-25T00:06:04.355Z,2.92
2023-04-25T00:08:31.626Z,3.08
2023-04-25T00:10:59.583Z,3.22
2023-04-25T00:13:27.345Z,3.13
2023-04-25T00:15:54.516Z,3.05
2023-04-25T00:18:21.467Z,3.28
2023-04-25T00:20:49.106Z,3.30
2023-04-25T00:25:47.441Z,3.50
2023-04-25T00:28:14.790Z,3.25
2023-04-25T00:30:42.356Z,3.17
2023-04-25T00:33:09.948Z,3.03
2023-04-25T00:35:37.582Z,3.15
2023-04-25T00:38:04.651Z,3.80
2023-04-25T00:40:31.606Z,3.85
2023-04-25T00:42:58.617Z,4.00
2023-04-25T00:45:30.410Z,3.35
2023-04-25T00:47:58.309Z,3.45
2023-04-25T00:50:25.963Z,4.20
2023-04-25T00:52:53.291Z,3.88
2023-04-25T00:55:20.868Z,4.03
2023-04-25T00:57:48.501Z,3.75
2023-04-25T01:42:02.756Z,3.53
2023-04-25T01:44:31.372Z,4.18
2023-04-25T01:46:58.638Z,3.40
2023-04-25T01:49:26.594Z,3.78
2023-04-25T01:51:54.005Z,3.35
2023-04-25T01:54:22.451Z,3.92
2023-04-25T01:56:53.340Z,3.90
2023-04-25T01:59:22.860Z,4.20
2023-04-25T02:02:13.151Z,3.78
2023-04-25T02:04:41.209Z,3.92
2023-04-25T02:07:09.078Z,3.42
2023-04-25T02:09:53.584Z,4.15
2023-04-25T02:12:22.696Z,3.75
2023-04-25T02:15:10.450Z,3.80
2023-04-25T02:17:46.241Z,3.78
2023-04-25T02:20:13.680Z,3.65
2023-04-25T02:22:40.777Z,3.78
2023-04-25T02:25:08.151Z,4.32
2023-04-25T02:27:35.322Z,4.43
2023-04-25T02:30:02.401Z,3.60
2023-04-25T02:32:31.323Z,3.88
2023-04-25T02:35:01.045Z,3.90
2023-04-25T02:37:30.596Z,3.90
2023-04-25T02:39:58.864Z,3.95
2023-04-25T02:42:25.982Z,3.53
2023-04-25T02:44:53.172Z,4.05
2023-04-25T02:47:21.875Z,4.15
2023-04-25T02:49:50.600Z,4.13
2023-04-25T02:52:17.557Z,3.72
2023-04-25T02:54:49.454Z,3.90
2023-04-25T02:57:16.792Z,3.72
2023-04-25T02:59:43.849Z,3.65
2023-04-25T03:02:11.414Z,4.28
2023-04-25T03:04:38.676Z,3.85
2023-04-25T03:07:05.987Z,4.45
2023-04-25T03:09:32.948Z,4.45
2023-04-25T03:12:00.207Z,4.32
2023-04-25T03:14:27.401Z,4.82
2023-04-25T03:16:55.288Z,4.22
2023-04-25T03:19:22.365Z,5.03
2023-04-25T03:21:49.674Z,5.28
2023-04-25T03:24:16.615Z,4.60
2023-04-25T03:26:43.726Z,4.65
2023-04-25T03:29:11.112Z,4.57
2023-04-25T03:31:39.998Z,5.25
2023-04-25T03:34:06.994Z,5.05
2023-04-25T03:36:34.033Z,5.60
2023-04-25T03:39:01.060Z,4.85
2023-04-25T03:41:30.840Z,5.32
2023-04-25T03:44:03.697Z,4.55
2023-04-25T03:46:31.076Z,4.75
2023-04-25T03:48:58.427Z,5.20
2023-04-25T03:51:33.302Z,5.45
2023-04-25T03:54:00.474Z,5.18
2023-04-25T03:56:46.054Z,4.95
2023-04-25T03:59:19.658Z,5.28
2023-04-25T04:01:46.691Z,5.20
2023-04-25T04:04:14.117Z,5.10
2023-04-25T04:06:41.888Z,4.88
2023-04-25T04:09:14.590Z,4.50
2023-04-25T04:11:43.788Z,5.05
2023-04-25T04:14:11.607Z,5.13
2023-04-25T04:16:42.943Z,4.70
2023-04-25T04:19:10.222Z,4.93
2023-04-25T04:21:38.783Z,4.78
2023-04-25T04:24:06.614Z,4.95
2023-04-25T04:26:46.147Z,5.93
2023-04-25T04:29:33.537Z,4.97
2023-04-25T04:32:38.785Z,5.15
2023-04-25T04:35:07.279Z,5.15
2023-04-25T04:37:34.619Z,5.05
2023-04-25T04:40:06.964Z,4.38
2023-04-25T04:42:46.272Z,4.88
2023-04-25T04:45:24.969Z,4.43
2023-04-25T04:48:07.653Z,5.38
2023-04-25T04:50:36.665Z,5.07
2023-04-25T04:53:15.897Z,5.18
2023-04-25T04:56:09.099Z,5.25
2023-04-25T04:58:53.938Z,5.78
2023-04-25T05:01:38.735Z,5.53
2023-04-25T05:04:26.341Z,6.50
2023-04-25T05:07:16.186Z,5.90
2023-04-25T05:10:07.396Z,5.90
2023-04-25T05:12:44.130Z,6.32
2023-04-25T05:15:24.471Z,6.40
2023-04-25T05:18:18.529Z,6.25
2023-04-25T05:20:50.183Z,6.40
2023-04-25T05:23:28.856Z,6.15
2023-04-25T05:26:14.922Z,6.97
2023-04-25T05:29:06.663Z,6.68
2023-04-25T05:31:42.190Z,5.90
2023-04-25T05:34:12.770Z,6.32
2023-04-25T05:36:54.733Z,6.20
2023-04-25T05:39:35.374Z,5.95
2023-04-25T05:42:27.196Z,6.32
2023-04-25T05:45:06.431Z,6.43
2023-04-25T05:47:51.416Z,6.88
2023-04-25T05:50:23.838Z,5.80
2023-04-25T05:53:02.458Z,5.85
2023-04-25T05:55:43.988Z,6.38
2023-04-25T05:58:25.759Z,11.27
2023-04-25T06:00:54.448Z,7.35
2023-04-25T06:03:21.694Z,6.30
2023-04-25T06:05:49.985Z,7.15
2023-04-25T06:08:17.383Z,6.95
2023-04-25T06:10:44.380Z,6.40
2023-04-25T06:13:11.371Z,5.80
2023-04-25T06:15:38.705Z,5.65
2023-04-25T06:18:07.049Z,5.10
2023-04-25T06:20:35.147Z,4.82
2023-04-25T06:23:02.180Z,4.88
2023-04-25T06:25:39.925Z,4.57
2023-04-25T06:28:07.149Z,5.47
2023-04-25T06:30:34.929Z,4.53
2023-04-25T06:33:07.701Z,4.65
2023-04-25T06:35:35.783Z,5.45
2023-04-25T06:38:03.064Z,4.97
2023-04-25T06:40:31.456Z,4.83
2023-04-25T06:43:00.140Z,4.50
2023-04-25T06:45:41.991Z,4.78
2023-04-25T06:48:10.150Z,4.28
2023-04-25T06:50:37.288Z,4.63
2023-04-25T06:53:04.830Z,4.55
2023-04-25T06:55:32.039Z,4.03
2023-04-25T06:58:37.466Z,3.65
2023-04-25T07:01:13.286Z,4.00
2023-04-25T07:03:40.858Z,4.13
2023-04-25T07:06:13.800Z,3.22
2023-04-25T07:08:40.770Z,3.72
2023-04-25T07:11:07.926Z,3.70
2023-04-25T07:13:37.525Z,3.92
2023-04-25T07:16:05.279Z,4.40
2023-04-25T07:18:34.487Z,4.55
2023-04-25T07:21:02.907Z,5.00
2023-04-25T07:23:31.604Z,4.20
2023-04-25T07:26:01.732Z,4.15
2023-04-25T07:28:30.411Z,4.40
2023-04-25T07:30:57.268Z,4.18
2023-04-25T07:33:25.801Z,4.55
2023-04-25T07:35:53.971Z,4.45
2023-04-25T07:38:21.156Z,4.15
2023-04-25T07:40:51.269Z,4.40
2023-04-25T07:43:18.495Z,4.57
2023-04-25T07:45:53.287Z,4.03
2023-04-25T07:48:21.625Z,4.40
2023-04-25T07:50:49.972Z,3.88
2023-04-25T07:53:18.943Z,4.22
2023-04-25T07:56:00.054Z,4.30
2023-04-25T08:01:00.493Z,3.90
2023-04-25T08:03:41.940Z,4.40
2023-04-25T08:06:16.552Z,3.70
2023-04-25T08:08:56.347Z,3.95
2023-04-25T08:11:29.864Z,3.78
2023-04-25T08:13:57.405Z,3.92
2023-04-25T08:16:24.829Z,3.95
2023-04-25T08:18:53.212Z,3.40
2023-04-25T08:21:21.234Z,3.40
2023-04-25T08:23:48.307Z,3.47
2023-04-25T08:26:24.020Z,3.10
2023-04-25T08:28:52.178Z,3.17
2023-04-25T08:31:19.377Z,3.00
2023-04-25T08:33:58.036Z,2.50
2023-04-25T08:36:54.339Z,2.55
2023-04-25T08:39:31.403Z,2.58
2023-04-25T08:42:16.435Z,3.35
2023-04-25T08:44:46.482Z,3.17
2023-04-25T08:47:14.005Z,4.30
2023-04-25T08:49:55.017Z,4.30
2023-04-25T08:52:25.006Z,4.55
2023-04-25T08:54:55.515Z,5.18
2023-04-25T10:44:31.430Z,1.52
2023-04-25T10:47:00.640Z,1.10
2023-04-25T10:52:16.826Z,1.15
2023-04-25T10:54:48.346Z,1.00
2023-04-25T10:57:43.380Z,1.20
2023-04-25T11:02:58.600Z,1.33
2023-04-25T11:05:50.821Z,1.00
2023-04-25T11:08:39.012Z,0.90
2023-04-25T11:11:06.472Z,0.98
2023-04-25T11:18:44.505Z,0.70
2023-04-25T11:21:12.808Z,0.60
2023-04-25T11:53:14.591Z,1.10
2023-04-25T11:55:41.752Z,1.15
2023-04-25T11:58:09.767Z,0.73
2023-04-25T12:00:37.109Z,0.43
2023-04-25T12:03:04.842Z,0.70
